sensor_id;sensor_type;location;lat;lon;timestamp;P1;durP1;ratioP1;P2;durP2;ratioP2
66972;SDS011;53902;51.466;-2.586;2023-04-24T00:00:11;9.38;;;5.20;;
66972;SDS011;53902;51.466;-2.586;2023-04-24T00:02:39;9.02;;;5.63;;
66972;SDS011;53902;51.466;-2.586;2023-04-24T00:05:05;8.48;;;5.15;;
66972;SDS011;53902;51.466;-2.586;2023-04-24T00:07:32;11.00;;;6.33;;
66972;SDS011;53902;51.466;-2.586;2023-04-24T00:09:57;9.77;;;5.32;;
66972;SDS011;53902;51.466;-2.586;2023-04-24T00:12:23;9.77;;;5.47;;
66972;SDS011;53902;51.466;-2.586;2023-04-24T00:17:54;7.82;;;5.10;;
66972;SDS011;53902;51.466;-2.586;2023-04-24T00:20:20;9.15;;;5.07;;
66972;SDS011;53902;51.466;-2.586;2023-04-24T00:22:46;12.23;;;5.30;;
66972;SDS011;53902;51.466;-2.586;2023-04-24T00:25:11;6.35;;;4.43;;
66972;SDS011;53902;51.466;-2.586;2023-04-24T00:27:36;10.80;;;5.05;;
66972;SDS011;53902;51.466;-2.586;2023-04-24T00:30:03;7.95;;;5.07;;
66972;SDS011;53902;51.466;-2.586;2023-04-24T00:32:29;8.15;;;4.70;;
66972;SDS011;53902;51.466;-2.586;2023-04-24T00:34:55;7.22;;;4.88;;
66972;SDS011;53902;51.466;-2.586;2023-04-24T00:37:20;10.30;;;4.78;;
66972;SDS011;53902;51.466;-2.586;2023-04-24T00:39:45;7.22;;;4.65;;
66972;SDS011;53902;51.466;-2.586;2023-04-24T00:42:11;11.73;;;4.55;;
66972;SDS011;53902;51.466;-2.586;2023-04-24T00:44:36;8.35;;;4.25;;
66972;SDS011;53902;51.466;-2.586;2023-04-24T00:47:02;6.22;;;4.30;;
66972;SDS011;53902;51.466;-2.586;2023-04-24T00:49:28;7.82;;;4.72;;
66972;SDS011;53902;51.466;-2.586;2023-04-24T00:51:53;9.20;;;4.50;;
66972;SDS011;53902;51.466;-2.586;2023-04-24T00:54:18;7.82;;;4.32;;
66972;SDS011;53902;51.466;-2.586;2023-04-24T00:56:44;8.68;;;5.13;;
66972;SDS011;53902;51.466;-2.586;2023-04-24T00:59:11;8.20;;;4.28;;
66972;SDS011;53902;51.466;-2.586;2023-04-24T01:01:37;8.10;;;4.72;;
66972;SDS011;53902;51.466;-2.586;2023-04-24T01:04:07;5.40;;;3.90;;
66972;SDS011;53902;51.466;-2.586;2023-04-24T01:06:33;5.80;;;4.00;;
66972;SDS011;53902;51.466;-2.586;2023-04-24T01:08:59;8.40;;;3.78;;
66972;SDS011;53902;51.466;-2.586;2023-04-24T01:11:25;6.00;;;4.10;;
66972;SDS011;53902;51.466;-2.586;2023-04-24T01:13:51;6.53;;;3.75;;
66972;SDS011;53902;51.466;-2.586;2023-04-24T01:16:17;7.05;;;4.10;;
66972;SDS011;53902;51.466;-2.586;2023-04-24T01:18:45;6.45;;;3.70;;
66972;SDS011;53902;51.466;-2.586;2023-04-24T01:21:11;4.78;;;3.65;;
66972;SDS011;53902;51.466;-2.586;2023-04-24T01:23:38;5.93;;;3.60;;
66972;SDS011;53902;51.466;-2.586;2023-04-24T01:26:04;8.85;;;3.80;;
66972;SDS011;53902;51.466;-2.586;2023-04-24T01:28:30;7.70;;;3.75;;
66972;SDS011;53902;51.466;-2.586;2023-04-24T01:30:55;5.75;;;3.78;;
66972;SDS011;53902;51.466;-2.586;2023-04-24T01:33:21;4.88;;;3.50;;
66972;SDS011;53902;51.466;-2.586;2023-04-24T01:35:47;7.80;;;3.70;;
66972;SDS011;53902;51.466;-2.586;2023-04-24T01:38:13;5.60;;;3.97;;
66972;SDS011;53902;51.466;-2.586;2023-04-24T01:40:39;6.57;;;3.80;;
66972;SDS011;53902;51.466;-2.586;2023-04-24T01:43:05;5.47;;;3.55;;
66972;SDS011;53902;51.466;-2.586;2023-04-24T01:45:30;5.30;;;3.70;;
66972;SDS011;53902;51.466;-2.586;2023-04-24T01:47:56;4.63;;;3.45;;
66972;SDS011;53902;51.466;-2.586;2023-04-24T01:50:21;5.63;;;3.80;;
66972;SDS011;53902;51.466;-2.586;2023-04-24T01:52:47;6.22;;;3.78;;
66972;SDS011;53902;51.466;-2.586;2023-04-24T01:55:12;7.55;;;3.85;;
66972;SDS011;53902;51.466;-2.586;2023-04-24T01:57:37;6.35;;;4.00;;
66972;SDS011;53902;51.466;-2.586;2023-04-24T02:00:03;5.97;;;3.88;;
66972;SDS011;53902;51.466;-2.586;2023-04-24T02:02:30;7.35;;;4.10;;
66972;SDS011;53902;51.466;-2.586;2023-04-24T02:04:56;7.93;;;4.18;;
66972;SDS011;53902;51.466;-2.586;2023-04-24T02:07:22;7.57;;;4.18;;
66972;SDS011;53902;51.466;-2.586;2023-04-24T02:09:47;6.47;;;4.07;;
66972;SDS011;53902;51.466;-2.586;2023-04-24T02:12:14;8.02;;;4.15;;
66972;SDS011;53902;51.466;-2.586;2023-04-24T02:14:40;6.65;;;3.92;;
66972;SDS011;53902;51.466;-2.586;2023-04-24T02:17:07;6.93;;;3.83;;
66972;SDS011;53902;51.466;-2.586;2023-04-24T02:19:32;7.38;;;4.05;;
66972;SDS011;53902;51.466;-2.586;2023-04-24T02:21:58;6.50;;;4.13;;
66972;SDS011;53902;51.466;-2.586;2023-04-24T02:24:23;5.22;;;4.00;;
66972;SDS011;53902;51.466;-2.586;2023-04-24T02:26:48;6.85;;;4.20;;
66972;SDS011;53902;51.466;-2.586;2023-04-24T02:29:14;9.60;;;4.38;;
66972;SDS011;53902;51.466;-2.586;2023-04-24T02:31:40;9.88;;;4.80;;
66972;SDS011;53902;51.466;-2.586;2023-04-24T02:34:05;5.25;;;4.15;;
66972;SDS011;53902;51.466;-2.586;2023-04-24T02:36:31;7.20;;;4.63;;
66972;SDS011;53902;51.466;-2.586;2023-04-24T02:38:56;8.98;;;4.15;;
66972;SDS011;53902;51.466;-2.586;2023-04-24T02:41:22;7.68;;;4.50;;
66972;SDS011;53902;51.466;-2.586;2023-04-24T02:43:47;7.47;;;4.28;;
66972;SDS011;53902;51.466;-2.586;2023-04-24T02:46:12;8.23;;;4.97;;
66972;SDS011;53902;51.466;-2.586;2023-04-24T02:48:38;7.45;;;4.80;;
66972;SDS011;53902;51.466;-2.586;2023-04-24T02:51:03;7.18;;;4.45;;
66972;SDS011;53902;51.466;-2.586;2023-04-24T02:53:29;7.18;;;4.32;;
66972;SDS011;53902;51.466;-2.586;2023-04-24T02:55:55;6.70;;;4.60;;
66972;SDS011;53902;51.466;-2.586;2023-04-24T02:58:21;7.82;;;4.60;;
66972;SDS011;53902;51.466;-2.586;2023-04-24T03:00:46;9.65;;;4.65;;
66972;SDS011;53902;51.466;-2.586;2023-04-24T03:03:12;8.25;;;4.30;;
66972;SDS011;53902;51.466;-2.586;2023-04-24T03:05:37;10.75;;;4.82;;
66972;SDS011;53902;51.466;-2.586;2023-04-24T03:08:03;10.90;;;5.05;;
66972;SDS011;53902;51.466;-2.586;2023-04-24T03:10:28;11.52;;;4.60;;
66972;SDS011;53902;51.466;-2.586;2023-04-24T03:12:54;11.20;;;4.97;;
66972;SDS011;53902;51.466;-2.586;2023-04-24T03:15:19;5.88;;;4.30;;
66972;SDS011;53902;51.466;-2.586;2023-04-24T03:17:45;8.63;;;4.70;;
66972;SDS011;53902;51.466;-2.586;2023-04-24T03:20:10;8.30;;;4.95;;
66972;SDS011;53902;51.466;-2.586;2023-04-24T03:22:36;8.02;;;5.18;;
66972;SDS011;53902;51.466;-2.586;2023-04-24T03:25:01;7.32;;;5.13;;
66972;SDS011;53902;51.466;-2.586;2023-04-24T03:27:27;10.55;;;5.00;;
66972;SDS011;53902;51.466;-2.586;2023-04-24T03:29:52;9.25;;;5.50;;
66972;SDS011;53902;51.466;-2.586;2023-04-24T03:32:20;11.52;;;5.22;;
66972;SDS011;53902;51.466;-2.586;2023-04-24T03:34:48;10.60;;;4.93;;
66972;SDS011;53902;51.466;-2.586;2023-04-24T03:37:15;9.48;;;4.82;;
66972;SDS011;53902;51.466;-2.586;2023-04-24T03:39:43;7.07;;;5.15;;
66972;SDS011;53902;51.466;-2.586;2023-04-24T03:42:08;9.05;;;5.22;;
66972;SDS011;53902;51.466;-2.586;2023-04-24T03:44:34;7.70;;;4.72;;
66972;SDS011;53902;51.466;-2.586;2023-04-24T03:47:00;10.53;;;5.27;;
66972;SDS011;53902;51.466;-2.586;2023-04-24T03:49:26;8.65;;;5.28;;
66972;SDS011;53902;51.466;-2.586;2023-04-24T03:51:51;9.13;;;5.28;;
66972;SDS011;53902;51.466;-2.586;2023-04-24T03:54:17;12.20;;;5.32;;
66972;SDS011;53902;51.466;-2.586;2023-04-24T03:56:43;9.52;;;5.55;;
66972;SDS011;53902;51.466;-2.586;2023-04-24T03:59:08;8.98;;;5.00;;
66972;SDS011;53902;51.466;-2.586;2023-04-24T04:01:34;7.70;;;5.05;;
66972;SDS011;53902;51.466;-2.586;2023-04-24T04:04:02;8.95;;;4.82;;
66972;SDS011;53902;51.466;-2.586;2023-04-24T04:06:28;9.13;;;5.67;;
66972;SDS011;53902;51.466;-2.586;2023-04-24T04:11:21;10.43;;;5.33;;
66972;SDS011;53902;51.466;-2.586;2023-04-24T04:13:46;8.45;;;5.03;;
66972;SDS011;53902;51.466;-2.586;2023-04-24T04:16:12;9.88;;;5.32;;
66972;SDS011;53902;51.466;-2.586;2023-04-24T04:18:38;8.20;;;4.80;;
66972;SDS011;53902;51.466;-2.586;2023-04-24T04:21:03;8.80;;;5.05;;
66972;SDS011;53902;51.466;-2.586;2023-04-24T04:23:29;7.93;;;5.40;;
66972;SDS011;53902;51.466;-2.586;2023-04-24T04:25:55;8.32;;;5.07;;
66972;SDS011;53902;51.466;-2.586;2023-04-24T04:28:20;11.73;;;5.28;;
66972;SDS011;53902;51.466;-2.586;2023-04-24T04:30:46;8.85;;;5.40;;
66972;SDS011;53902;51.466;-2.586;2023-04-24T04:33:12;8.77;;;5.25;;
66972;SDS011;53902;51.466;-2.586;2023-04-24T04:35:37;10.82;;;5.47;;
66972;SDS011;53902;51.466;-2.586;2023-04-24T04:38:03;8.52;;;5.75;;
66972;SDS011;53902;51.466;-2.586;2023-04-24T04:40:29;9.85;;;5.68;;
66972;SDS011;53902;51.466;-2.586;2023-04-24T04:42:55;10.90;;;5.88;;
66972;SDS011;53902;51.466;-2.586;2023-04-24T04:45:20;13.90;;;6.45;;
66972;SDS011;53902;51.466;-2.586;2023-04-24T04:47:46;14.63;;;6.60;;
66972;SDS011;53902;51.466;-2.586;2023-04-24T04:50:12;12.80;;;6.03;;
66972;SDS011;53902;51.466;-2.586;2023-04-24T04:52:38;9.73;;;6.13;;
66972;SDS011;53902;51.466;-2.586;2023-04-24T04:55:04;11.80;;;6.65;;
66972;SDS011;53902;51.466;-2.586;2023-04-24T04:57:30;13.10;;;7.10;;
66972;SDS011;53902;51.466;-2.586;2023-04-24T04:59:55;14.75;;;7.28;;
66972;SDS011;53902;51.466;-2.586;2023-04-24T05:02:21;10.95;;;6.70;;
66972;SDS011;53902;51.466;-2.586;2023-04-24T05:04:46;12.25;;;7.43;;
66972;SDS011;53902;51.466;-2.586;2023-04-24T05:07:11;14.00;;;7.50;;
66972;SDS011;53902;51.466;-2.586;2023-04-24T05:09:37;11.27;;;7.15;;
66972;SDS011;53902;51.466;-2.586;2023-04-24T05:12:02;13.15;;;7.50;;
66972;SDS011;53902;51.466;-2.586;2023-04-24T05:14:28;12.13;;;7.30;;
66972;SDS011;53902;51.466;-2.586;2023-04-24T05:16:53;12.73;;;7.57;;
66972;SDS011;53902;51.466;-2.586;2023-04-24T05:19:19;14.75;;;8.18;;
66972;SDS011;53902;51.466;-2.586;2023-04-24T05:21:44;14.40;;;7.95;;
66972;SDS011;53902;51.466;-2.586;2023-04-24T05:24:10;15.05;;;7.55;;
66972;SDS011;53902;51.466;-2.586;2023-04-24T05:26:35;13.10;;;7.22;;
66972;SDS011;53902;51.466;-2.586;2023-04-24T05:29:01;10.85;;;6.68;;
66972;SDS011;53902;51.466;-2.586;2023-04-24T05:31:33;10.93;;;7.03;;
66972;SDS011;53902;51.466;-2.586;2023-04-24T05:34:01;11.80;;;7.50;;
66972;SDS011;53902;51.466;-2.586;2023-04-24T05:36:27;11.05;;;7.13;;
66972;SDS011;53902;51.466;-2.586;2023-04-24T05:38:52;12.80;;;7.63;;
66972;SDS011;53902;51.466;-2.586;2023-04-24T05:41:18;11.77;;;6.90;;
66972;SDS011;53902;51.466;-2.586;2023-04-24T05:43:43;13.65;;;8.02;;
66972;SDS011;53902;51.466;-2.586;2023-04-24T05:46:09;13.10;;;7.30;;
66972;SDS011;53902;51.466;-2.586;2023-04-24T05:48:34;12.05;;;6.85;;
66972;SDS011;53902;51.466;-2.586;2023-04-24T05:51:05;12.48;;;7.10;;
66972;SDS011;53902;51.466;-2.586;2023-04-24T05:53:32;13.10;;;7.72;;
66972;SDS011;53902;51.466;-2.586;2023-04-24T05:59:21;10.98;;;6.20;;
66972;SDS011;53902;51.466;-2.586;2023-04-24T06:01:46;10.55;;;6.57;;
66972;SDS011;53902;51.466;-2.586;2023-04-24T06:04:12;11.35;;;6.43;;
66972;SDS011;53902;51.466;-2.586;2023-04-24T06:06:38;12.93;;;7.15;;
66972;SDS011;53902;51.466;-2.586;2023-04-24T06:09:04;11.40;;;6.60;;
66972;SDS011;53902;51.466;-2.586;2023-04-24T06:11:29;15.18;;;7.03;;
66972;SDS011;53902;51.466;-2.586;2023-04-24T06:13:55;12.75;;;6.78;;
66972;SDS011;53902;51.466;-2.586;2023-04-24T06:16:20;12.95;;;7.20;;
66972;SDS011;53902;51.466;-2.586;2023-04-24T06:18:46;10.45;;;6.85;;
66972;SDS011;53902;51.466;-2.586;2023-04-24T06:21:12;12.18;;;7.07;;
66972;SDS011;53902;51.466;-2.586;2023-04-24T06:23:37;16.02;;;7.35;;
66972;SDS011;53902;51.466;-2.586;2023-04-24T06:26:03;14.13;;;8.13;;
66972;SDS011;53902;51.466;-2.586;2023-04-24T06:28:28;11.73;;;7.70;;
66972;SDS011;53902;51.466;-2.586;2023-04-24T06:30:53;11.60;;;6.78;;
66972;SDS011;53902;51.466;-2.586;2023-04-24T06:33:19;13.38;;;6.80;;
66972;SDS011;53902;51.466;-2.586;2023-04-24T06:35:44;11.98;;;6.70;;
66972;SDS011;53902;51.466;-2.586;2023-04-24T06:38:10;9.40;;;6.00;;
66972;SDS011;53902;51.466;-2.586;2023-04-24T06:40:35;11.82;;;6.25;;
66972;SDS011;53902;51.466;-2.586;2023-04-24T06:43:00;10.02;;;6.72;;
66972;SDS011;53902;51.466;-2.586;2023-04-24T06:45:27;12.45;;;7.18;;
66972;SDS011;53902;51.466;-2.586;2023-04-24T06:47:54;13.98;;;7.00;;
66972;SDS011;53902;51.466;-2.586;2023-04-24T06:50:19;10.63;;;6.95;;
66972;SDS011;53902;51.466;-2.586;2023-04-24T06:52:44;11.20;;;7.20;;
66972;SDS011;53902;51.466;-2.586;2023-04-24T06:55:10;12.55;;;7.32;;
66972;SDS011;53902;51.466;-2.586;2023-04-24T06:57:36;10.10;;;6.85;;
66972;SDS011;53902;51.466;-2.586;2023-04-24T07:00:02;12.20;;;7.10;;
66972;SDS011;53902;51.466;-2.586;2023-04-24T07:02:28;12.48;;;7.57;;
66972;SDS011;53902;51.466;-2.586;2023-04-24T07:04:53;13.07;;;7.70;;
66972;SDS011;53902;51.466;-2.586;2023-04-24T07:07:19;16.25;;;9.02;;
66972;SDS011;53902;51.466;-2.586;2023-04-24T07:09:44;13.10;;;8.00;;
66972;SDS011;53902;51.466;-2.586;2023-04-24T07:12:11;12.95;;;8.10;;
66972;SDS011;53902;51.466;-2.586;2023-04-24T07:14:37;15.48;;;7.88;;
66972;SDS011;53902;51.466;-2.586;2023-04-24T07:17:03;14.95;;;8.40;;
66972;SDS011;53902;51.466;-2.586;2023-04-24T07:19:29;11.73;;;8.02;;
66972;SDS011;53902;51.466;-2.586;2023-04-24T07:21:55;12.18;;;8.07;;
66972;SDS011;53902;51.466;-2.586;2023-04-24T07:24:20;13.63;;;7.80;;
66972;SDS011;53902;51.466;-2.586;2023-04-24T07:26:45;12.05;;;7.30;;
66972;SDS011;53902;51.466;-2.586;2023-04-24T07:29:11;10.77;;;7.68;;
66972;SDS011;53902;51.466;-2.586;2023-04-24T07:31:37;16.73;;;7.82;;
66972;SDS011;53902;51.466;-2.586;2023-04-24T07:34:02;14.20;;;8.05;;
66972;SDS011;53902;51.466;-2.586;2023-04-24T07:36:28;12.18;;;7.75;;
66972;SDS011;53902;51.466;-2.586;2023-04-24T07:38:53;11.57;;;7.28;;
66972;SDS011;53902;51.466;-2.586;2023-04-24T07:41:19;9.77;;;7.32;;
66972;SDS011;53902;51.466;-2.586;2023-04-24T07:43:45;13.13;;;8.10;;
66972;SDS011;53902;51.466;-2.586;2023-04-24T07:46:11;12.88;;;7.35;;
66972;SDS011;53902;51.466;-2.586;2023-04-24T07:48:36;15.50;;;8.35;;
66972;SDS011;53902;51.466;-2.586;2023-04-24T07:51:01;10.82;;;6.93;;
66972;SDS011;53902;51.466;-2.586;2023-04-24T07:53:27;11.02;;;6.25;;
66972;SDS011;53902;51.466;-2.586;2023-04-24T07:55:53;11.45;;;6.43;;
66972;SDS011;53902;51.466;-2.586;2023-04-24T07:58:21;6.88;;;4.95;;
66972;SDS011;53902;51.466;-2.586;2023-04-24T08:00:46;8.20;;;5.32;;
66972;SDS011;53902;51.466;-2.586;2023-04-24T08:03:12;8.18;;;5.50;;
66972;SDS011;53902;51.466;-2.586;2023-04-24T08:05:37;7.20;;;4.68;;
66972;SDS011;53902;51.466;-2.586;2023-04-24T08:08:03;9.43;;;5.05;;
66972;SDS011;53902;51.466;-2.586;2023-04-24T08:10:28;7.93;;;4.45;;
66972;SDS011;53902;51.466;-2.586;2023-04-24T08:12:54;8.82;;;4.30;;
66972;SDS011;53902;51.466;-2.586;2023-04-24T08:15:20;8.82;;;4.75;;
66972;SDS011;53902;51.466;-2.586;2023-04-24T08:17:46;7.85;;;4.93;;
66972;SDS011;53902;51.466;-2.586;2023-04-24T08:20:11;7.18;;;4.72;;
66972;SDS011;53902;51.466;-2.586;2023-04-24T08:22:40;8.52;;;4.75;;
66972;SDS011;53902;51.466;-2.586;2023-04-24T08:25:07;7.07;;;5.15;;
66972;SDS011;53902;51.466;-2.586;2023-04-24T08:27:45;7.70;;;5.68;;
66972;SDS011;53902;51.466;-2.586;2023-04-24T08:30:10;8.77;;;5.63;;
66972;SDS011;53902;51.466;-2.586;2023-04-24T08:32:36;10.70;;;5.93;;
66972;SDS011;53902;51.466;-2.586;2023-04-24T08:35:01;9.75;;;6.35;;
66972;SDS011;53902;51.466;-2.586;2023-04-24T08:37:27;12.23;;;7.40;;
66972;SDS011;53902;51.466;-2.586;2023-04-24T08:39:52;11.82;;;7.60;;
66972;SDS011;53902;51.466;-2.586;2023-04-24T08:42:18;17.23;;;9.27;;
66972;SDS011;53902;51.466;-2.586;2023-04-24T08:44:44;12.55;;;8.07;;
66972;SDS011;53902;51.466;-2.586;2023-04-24T08:47:10;13.90;;;7.43;;
66972;SDS011;53902;51.466;-2.586;2023-04-24T08:49:36;10.82;;;7.28;;
66972;SDS011;53902;51.466;-2.586;2023-04-24T08:52:02;13.02;;;7.30;;
66972;SDS011;53902;51.466;-2.586;2023-04-24T08:54:28;10.10;;;7.03;;
66972;SDS011;53902;51.466;-2.586;2023-04-24T08:56:54;10.93;;;7.13;;
66972;SDS011;53902;51.466;-2.586;2023-04-24T08:59:25;13.65;;;7.22;;
66972;SDS011;53902;51.466;-2.586;2023-04-24T09:01:51;12.55;;;7.05;;
66972;SDS011;53902;51.466;-2.586;2023-04-24T09:04:17;12.70;;;7.72;;
66972;SDS011;53902;51.466;-2.586;2023-04-24T09:06:44;12.85;;;7.53;;
66972;SDS011;53902;51.466;-2.586;2023-04-24T09:09:10;11.10;;;7.45;;
66972;SDS011;53902;51.466;-2.586;2023-04-24T09:11:36;13.20;;;7.85;;
66972;SDS011;53902;51.466;-2.586;2023-04-24T09:14:02;14.30;;;9.13;;
66972;SDS011;53902;51.466;-2.586;2023-04-24T09:16:28;13.90;;;7.73;;
66972;SDS011;53902;51.466;-2.586;2023-04-24T09:18:54;17.35;;;7.95;;
66972;SDS011;53902;51.466;-2.586;2023-04-24T09:21:21;12.00;;;8.07;;
66972;SDS011;53902;51.466;-2.586;2023-04-24T09:23:47;13.75;;;8.40;;
66972;SDS011;53902;51.466;-2.586;2023-04-24T09:26:22;14.57;;;8.10;;
66972;SDS011;53902;51.466;-2.586;2023-04-24T09:28:48;13.88;;;8.20;;
66972;SDS011;53902;51.466;-2.586;2023-04-24T09:31:15;15.57;;;7.88;;
66972;SDS011;53902;51.466;-2.586;2023-04-24T09:34:03;14.43;;;8.30;;
66972;SDS011;53902;51.466;-2.586;2023-04-24T09:39:03;19.15;;;9.00;;
66972;SDS011;53902;51.466;-2.586;2023-04-24T09:41:31;14.57;;;8.10;;
66972;SDS011;53902;51.466;-2.586;2023-04-24T09:43:57;13.57;;;8.45;;
66972;SDS011;53902;51.466;-2.586;2023-04-24T09:46:30;15.98;;;8.85;;
66972;SDS011;53902;51.466;-2.586;2023-04-24T09:48:56;13.52;;;8.30;;
66972;SDS011;53902;51.466;-2.586;2023-04-24T09:51:35;15.40;;;8.00;;
66972;SDS011;53902;51.466;-2.586;2023-04-24T09:54:01;15.90;;;8.57;;
66972;SDS011;53902;51.466;-2.586;2023-04-24T09:56:28;13.13;;;8.45;;
66972;SDS011;53902;51.466;-2.586;2023-04-24T09:59:04;14.18;;;8.93;;
66972;SDS011;53902;51.466;-2.586;2023-04-24T10:01:32;12.43;;;8.80;;
66972;SDS011;53902;51.466;-2.586;2023-04-24T10:03:58;13.02;;;7.85;;
66972;SDS011;53902;51.466;-2.586;2023-04-24T10:06:24;16.35;;;8.13;;
66972;SDS011;53902;51.466;-2.586;2023-04-24T10:08:56;14.82;;;7.82;;
66972;SDS011;53902;51.466;-2.586;2023-04-24T10:11:23;11.45;;;7.93;;
66972;SDS011;53902;51.466;-2.586;2023-04-24T10:13:51;11.07;;;7.80;;
66972;SDS011;53902;51.466;-2.586;2023-04-24T10:16:17;10.97;;;7.33;;
66972;SDS011;53902;51.466;-2.586;2023-04-24T10:18:42;11.90;;;7.82;;
66972;SDS011;53902;51.466;-2.586;2023-04-24T10:21:08;13.10;;;8.05;;
66972;SDS011;53902;51.466;-2.586;2023-04-24T10:23:33;13.10;;;7.93;;
66972;SDS011;53902;51.466;-2.586;2023-04-24T10:26:00;15.35;;;8.50;;
66972;SDS011;53902;51.466;-2.586;2023-04-24T10:28:25;16.08;;;8.27;;
66972;SDS011;53902;51.466;-2.586;2023-04-24T10:30:51;15.95;;;7.47;;
66972;SDS011;53902;51.466;-2.586;2023-04-24T10:33:19;13.68;;;8.07;;
66972;SDS011;53902;51.466;-2.586;2023-04-24T10:35:46;14.88;;;7.82;;
66972;SDS011;53902;51.466;-2.586;2023-04-24T10:38:14;14.55;;;7.85;;
66972;SDS011;53902;51.466;-2.586;2023-04-24T10:40:42;13.25;;;7.53;;
66972;SDS011;53902;51.466;-2.586;2023-04-24T10:43:09;11.48;;;7.28;;
66972;SDS011;53902;51.466;-2.586;2023-04-24T10:45:36;12.55;;;7.90;;
66972;SDS011;53902;51.466;-2.586;2023-04-24T10:48:02;13.23;;;8.35;;
66972;SDS011;53902;51.466;-2.586;2023-04-24T10:50:29;12.90;;;7.72;;
66972;SDS011;53902;51.466;-2.586;2023-04-24T10:53:07;14.80;;;7.95;;
66972;SDS011;53902;51.466;-2.586;2023-04-24T10:55:45;16.13;;;8.52;;
66972;SDS011;53902;51.466;-2.586;2023-04-24T10:58:15;15.07;;;7.82;;
66972;SDS011;53902;51.466;-2.586;2023-04-24T11:00:42;11.90;;;6.88;;
66972;SDS011;53902;51.466;-2.586;2023-04-24T11:06:15;11.80;;;7.47;;
66972;SDS011;53902;51.466;-2.586;2023-04-24T11:08:44;15.38;;;7.00;;
66972;SDS011;53902;51.466;-2.586;2023-04-24T11:11:11;10.52;;;6.57;;
66972;SDS011;53902;51.466;-2.586;2023-04-24T11:19:01;8.35;;;5.05;;
66972;SDS011;53902;51.466;-2.586;2023-04-24T11:37:27;7.82;;;5.78;;
66972;SDS011;53902;51.466;-2.586;2023-04-24T11:39:54;8.55;;;5.70;;
66972;SDS011;53902;51.466;-2.586;2023-04-24T11:42:21;8.18;;;4.90;;
66972;SDS011;53902;51.466;-2.586;2023-04-24T11:44:48;7.18;;;5.00;;
66972;SDS011;53902;51.466;-2.586;2023-04-24T11:47:15;9.93;;;5.75;;
66972;SDS011;53902;51.466;-2.586;2023-04-24T11:49:40;8.80;;;5.38;;
66972;SDS011;53902;51.466;-2.586;2023-04-24T11:52:06;8.27;;;5.70;;
66972;SDS011;53902;51.466;-2.586;2023-04-24T11:54:31;7.15;;;5.05;;
66972;SDS011;53902;51.466;-2.586;2023-04-24T11:56:57;5.90;;;4.72;;
66972;SDS011;53902;51.466;-2.586;2023-04-24T11:59:22;4.80;;;4.10;;
66972;SDS011;53902;51.466;-2.586;2023-04-24T12:01:48;4.72;;;3.50;;
66972;SDS011;53902;51.466;-2.586;2023-04-24T12:04:15;3.50;;;3.00;;
66972;SDS011;53902;51.466;-2.586;2023-04-24T12:07:02;4.65;;;3.22;;
66972;SDS011;53902;51.466;-2.586;2023-04-24T12:09:28;249.30;;;10.90;;
66972;SDS011;53902;51.466;-2.586;2023-04-24T12:11:54;9.15;;;4.07;;
66972;SDS011;53902;51.466;-2.586;2023-04-24T12:14:23;5.07;;;4.28;;
66972;SDS011;53902;51.466;-2.586;2023-04-24T12:16:49;9.57;;;4.38;;
66972;SDS011;53902;51.466;-2.586;2023-04-24T12:19:21;5.07;;;3.40;;
66972;SDS011;53902;51.466;-2.586;2023-04-24T12:22:08;5.55;;;3.58;;
66972;SDS011;53902;51.466;-2.586;2023-04-24T12:24:32;4.65;;;3.30;;
66972;SDS011;53902;51.466;-2.586;2023-04-24T12:26:58;4.07;;;2.90;;
66972;SDS011;53902;51.466;-2.586;2023-04-24T12:29:24;5.10;;;3.58;;
66972;SDS011;53902;51.466;-2.586;2023-04-24T12:31:52;6.25;;;3.60;;
66972;SDS011;53902;51.466;-2.586;2023-04-24T12:34:21;5.68;;;3.70;;
66972;SDS011;53902;51.466;-2.586;2023-04-24T12:36:48;5.13;;;2.90;;
66972;SDS011;53902;51.466;-2.586;2023-04-24T12:39:14;4.45;;;2.90;;
66972;SDS011;53902;51.466;-2.586;2023-04-24T12:41:54;3.45;;;2.90;;
66972;SDS011;53902;51.466;-2.586;2023-04-24T12:44:28;6.82;;;3.80;;
66972;SDS011;53902;51.466;-2.586;2023-04-24T12:47:02;5.13;;;3.50;;
66972;SDS011;53902;51.466;-2.586;2023-04-24T12:49:29;5.35;;;3.60;;
66972;SDS011;53902;51.466;-2.586;2023-04-24T12:51:55;6.53;;;4.00;;
66972;SDS011;53902;51.466;-2.586;2023-04-24T12:54:20;7.95;;;4.30;;
66972;SDS011;53902;51.466;-2.586;2023-04-24T12:56:46;5.47;;;3.88;;
66972;SDS011;53902;51.466;-2.586;2023-04-24T12:59:11;7.90;;;4.38;;
66972;SDS011;53902;51.466;-2.586;2023-04-24T13:01:36;6.38;;;4.32;;
66972;SDS011;53902;51.466;-2.586;2023-04-24T13:04:02;7.80;;;4.07;;
66972;SDS011;53902;51.466;-2.586;2023-04-24T13:06:27;5.63;;;4.32;;
66972;SDS011;53902;51.466;-2.586;2023-04-24T13:08:53;5.53;;;4.18;;
66972;SDS011;53902;51.466;-2.586;2023-04-24T13:11:19;7.18;;;4.30;;
66972;SDS011;53902;51.466;-2.586;2023-04-24T13:13:46;6.32;;;4.32;;
66972;SDS011;53902;51.466;-2.586;2023-04-24T13:16:11;6.22;;;4.10;;
66972;SDS011;53902;51.466;-2.586;2023-04-24T13:18:37;6.13;;;3.85;;
66972;SDS011;53902;51.466;-2.586;2023-04-24T13:21:02;6.63;;;4.18;;
66972;SDS011;53902;51.466;-2.586;2023-04-24T13:23:28;5.53;;;4.20;;
66972;SDS011;53902;51.466;-2.586;2023-04-24T13:25:54;6.72;;;4.40;;
66972;SDS011;53902;51.466;-2.586;2023-04-24T13:28:22;4.78;;;4.28;;
66972;SDS011;53902;51.466;-2.586;2023-04-24T13:30:47;5.80;;;4.20;;
66972;SDS011;53902;51.466;-2.586;2023-04-24T13:33:13;7.72;;;4.20;;
66972;SDS011;53902;51.466;-2.586;2023-04-24T13:35:39;6.30;;;4.25;;
66972;SDS011;53902;51.466;-2.586;2023-04-24T13:38:04;4.95;;;3.83;;
66972;SDS011;53902;51.466;-2.586;2023-04-24T13:40:31;5.28;;;3.72;;
66972;SDS011;53902;51.466;-2.586;2023-04-24T13:42:57;6.13;;;4.28;;
66972;SDS011;53902;51.466;-2.586;2023-04-24T13:45:22;6.63;;;3.75;;
66972;SDS011;53902;51.466;-2.586;2023-04-24T13:47:47;5.10;;;3.80;;
66972;SDS011;53902;51.466;-2.586;2023-04-24T13:50:13;6.00;;;3.72;;
66972;SDS011;53902;51.466;-2.586;2023-04-24T13:52:38;4.55;;;4.05;;
66972;SDS011;53902;51.466;-2.586;2023-04-24T13:55:03;5.50;;;3.97;;
66972;SDS011;53902;51.466;-2.586;2023-04-24T13:57:29;7.38;;;4.28;;
66972;SDS011;53902;51.466;-2.586;2023-04-24T13:59:56;8.52;;;3.70;;
66972;SDS011;53902;51.466;-2.586;2023-04-24T14:02:26;6.95;;;3.80;;
66972;SDS011;53902;51.466;-2.586;2023-04-24T14:04:51;8.18;;;3.97;;
66972;SDS011;53902;51.466;-2.586;2023-04-24T14:07:17;5.10;;;3.55;;
66972;SDS011;53902;51.466;-2.586;2023-04-24T14:09:42;6.40;;;3.72;;
66972;SDS011;53902;51.466;-2.586;2023-04-24T14:12:08;4.90;;;3.50;;
66972;SDS011;53902;51.466;-2.586;2023-04-24T14:14:33;4.68;;;3.40;;
66972;SDS011;53902;51.466;-2.586;2023-04-24T14:16:59;5.35;;;3.38;;
66972;SDS011;53902;51.466;-2.586;2023-04-24T14:19:24;9.15;;;3.50;;
66972;SDS011;53902;51.466;-2.586;2023-04-24T14:21:50;5.22;;;2.80;;
66972;SDS011;53902;51.466;-2.586;2023-04-24T14:24:15;7.28;;;3.35;;
66972;SDS011;53902;51.466;-2.586;2023-04-24T14:26:40;4.32;;;2.72;;
66972;SDS011;53902;51.466;-2.586;2023-04-24T14:29:06;4.95;;;2.95;;
66972;SDS011;53902;51.466;-2.586;2023-04-24T14:31:31;6.78;;;2.85;;
66972;SDS011;53902;51.466;-2.586;2023-04-24T14:33:56;4.03;;;2.90;;
66972;SDS011;53902;51.466;-2.586;2023-04-24T14:36:22;6.25;;;2.65;;
66972;SDS011;53902;51.466;-2.586;2023-04-24T14:38:48;3.47;;;2.75;;
66972;SDS011;53902;51.466;-2.586;2023-04-24T14:41:14;4.40;;;2.85;;
66972;SDS011;53902;51.466;-2.586;2023-04-24T14:43:39;5.18;;;3.17;;
66972;SDS011;53902;51.466;-2.586;2023-04-24T14:46:05;4.45;;;2.90;;
66972;SDS011;53902;51.466;-2.586;2023-04-24T14:48:30;6.07;;;2.88;;
66972;SDS011;53902;51.466;-2.586;2023-04-24T14:50:56;6.60;;;3.28;;
66972;SDS011;53902;51.466;-2.586;2023-04-24T14:53:21;6.53;;;3.58;;
66972;SDS011;53902;51.466;-2.586;2023-04-24T14:55:47;5.15;;;3.47;;
66972;SDS011;53902;51.466;-2.586;2023-04-24T14:58:12;6.85;;;3.10;;